Terminal Aerodrome Forecast
Issued by NWS

Home | Current Version | Previous Version | Text Only | Print | Product List | Glossary On
Versions: 1 2 3 4 5 6 7 8 9 10 11 12 13 14
000
FTUS44 KEPZ 021720
TAFDMN
TAF
KDMN 021720Z 0218/0318 27006KT P6SM FEW100 SCT250
     FM030300 31009KT P6SM VCTS SCT090CB BKN130 BKN250
     FM030700 04008KT P6SM SCT080 BKN150
     FM031400 08008KT P6SM SCT050 BKN120=

USA.gov is the U.S. government's official web portal to all federal, state and local government web resources and services.